Time;durP1;ratioP1;P1;durP2;ratioP2;P2;SDS_P1;SDS_P2;PMS_P1;PMS_P2;Temp;Humidity;BMP_temperature;BMP_pressure;BME280_temperature;BME280_humidity;BME280_pressure;Samples;Min_cycle;Max_cycle;Signal;HPM_P1;HPM_P2
2023/09/24 00:02:06;;;;;;;3.13;2.30;;;16.50;73.20;;;;;;6210785;23;20742;-70
2023/09/24 00:04:35;;;;;;;3.43;2.43;;;16.40;73.10;;;;;;6212644;23;20431;-70
2023/09/24 00:07:02;;;;;;;3.87;2.70;;;16.40;73.30;;;;;;6212134;23;20665;-70
2023/09/24 00:09:30;;;;;;;2.47;2.10;;;16.40;73.40;;;;;;6212630;23;20928;-70
2023/09/24 00:11:57;;;;;;;2.50;2.10;;;16.40;73.50;;;;;;6211916;23;20471;-69
2023/09/24 00:14:25;;;;;;;3.60;2.60;;;16.40;73.50;;;;;;6212478;23;20432;-70
2023/09/24 00:16:52;;;;;;;2.57;2.17;;;16.30;73.20;;;;;;6211354;23;20476;-70
2023/09/24 00:19:19;;;;;;;2.50;2.13;;;16.30;73.20;;;;;;6212987;23;20399;-69
2023/09/24 00:21:47;;;;;;;3.43;2.40;;;16.30;73.20;;;;;;6212922;23;20488;-69
2023/09/24 00:24:17;;;;;;;4.17;1.90;;;16.30;73.20;;;;;;6211952;23;20428;-69
2023/09/24 00:26:45;;;;;;;2.30;2.10;;;16.30;73.10;;;;;;6212286;23;20788;-69
2023/09/24 00:29:11;;;;;;;3.03;1.93;;;16.20;73.00;;;;;;6212712;23;20409;-69
2023/09/24 00:31:38;;;;;;;2.60;2.00;;;16.20;73.20;;;;;;6211958;23;20556;-69
2023/09/24 00:34:05;;;;;;;3.30;2.20;;;16.20;73.10;;;;;;6212419;23;20409;-69
2023/09/24 00:36:33;;;;;;;2.27;1.90;;;16.20;73.30;;;;;;6212795;23;20425;-69
2023/09/24 00:39:01;;;;;;;3.10;2.33;;;16.10;73.30;;;;;;6211790;23;20440;-69
2023/09/24 00:41:28;;;;;;;3.10;2.30;;;16.10;73.50;;;;;;6212034;23;20401;-69
2023/09/24 00:43:56;;;;;;;4.30;2.23;;;16.00;73.30;;;;;;6211907;23;20917;-69
2023/09/24 00:46:22;;;;;;;5.43;3.23;;;16.00;73.50;;;;;;6212585;23;20431;-69
2023/09/24 00:48:51;;;;;;;2.67;2.30;;;16.00;73.50;;;;;;6212241;23;20413;-68
2023/09/24 00:51:21;;;;;;;4.37;2.17;;;16.00;73.40;;;;;;6211966;23;20503;-68
2023/09/24 00:53:49;;;;;;;3.40;2.10;;;15.90;74.10;;;;;;6212072;23;20389;-68
2023/09/24 00:56:18;;;;;;;2.60;2.10;;;15.90;73.30;;;;;;6212186;23;20423;-68
2023/09/24 00:58:47;;;;;;;3.10;2.30;;;15.90;73.10;;;;;;6211464;23;20456;-68
2023/09/24 01:01:14;;;;;;;2.63;2.37;;;15.90;73.10;;;;;;6212113;23;20445;-69
2023/09/24 01:03:41;;;;;;;3.20;2.20;;;15.80;73.10;;;;;;6212226;23;20426;-68
2023/09/24 01:06:08;;;;;;;2.50;2.00;;;15.80;73.40;;;;;;6211995;23;20479;-68
2023/09/24 01:08:36;;;;;;;2.80;2.47;;;15.80;73.50;;;;;;6212167;23;20417;-68
2023/09/24 01:11:04;;;;;;;2.43;2.17;;;15.70;73.70;;;;;;6212137;23;20445;-69
2023/09/24 01:13:39;;;;;;;4.67;2.20;;;15.70;73.90;;;;;;6211150;23;20409;-69
2023/09/24 01:16:06;;;;;;;3.57;2.47;;;15.70;74.10;;;;;;6211738;23;20732;-69
2023/09/24 01:18:36;;;;;;;4.10;2.50;;;15.60;73.70;;;;;;6210247;23;20423;-69
2023/09/24 01:21:04;;;;;;;2.47;2.10;;;15.60;74.40;;;;;;6210563;23;20448;-69
2023/09/24 01:23:37;;;;;;;2.73;2.10;;;15.60;73.50;;;;;;6211738;23;20496;-69
2023/09/24 01:26:04;;;;;;;2.43;2.00;;;15.50;73.60;;;;;;6212167;23;20385;-69
2023/09/24 01:28:31;;;;;;;2.90;1.93;;;15.50;73.70;;;;;;6212436;23;20397;-69
2023/09/24 01:30:59;;;;;;;2.43;1.90;;;15.50;73.70;;;;;;6211979;23;20441;-70
2023/09/24 01:33:26;;;;;;;2.90;2.20;;;15.40;73.80;;;;;;6212056;23;20737;-69
2023/09/24 01:35:53;;;;;;;3.03;2.20;;;15.40;73.60;;;;;;6211668;23;20416;-69
2023/09/24 01:38:21;;;;;;;2.23;2.03;;;15.40;73.60;;;;;;6211309;23;20413;-69
2023/09/24 01:40:51;;;;;;;2.20;2.00;;;15.40;74.20;;;;;;6212805;23;20409;-69
2023/09/24 01:43:18;;;;;;;2.27;2.07;;;15.40;73.70;;;;;;6211963;23;20433;-69
2023/09/24 01:45:47;;;;;;;2.20;1.97;;;15.40;74.00;;;;;;6212361;23;20500;-69
2023/09/24 01:48:15;;;;;;;5.07;2.47;;;15.30;74.00;;;;;;6210420;23;20409;-69
2023/09/24 01:50:42;;;;;;;3.37;2.10;;;15.30;74.40;;;;;;6210932;23;20756;-69
2023/09/24 01:53:09;;;;;;;2.63;1.97;;;15.30;74.40;;;;;;6211607;23;20421;-68
2023/09/24 01:55:37;;;;;;;3.13;2.10;;;15.20;74.40;;;;;;6211440;23;20432;-69
2023/09/24 01:58:06;;;;;;;2.37;2.13;;;15.20;74.40;;;;;;6211431;23;20521;-69
2023/09/24 02:00:33;;;;;;;3.50;1.97;;;15.20;74.40;;;;;;6211605;23;20417;-69
2023/09/24 02:03:05;;;;;;;2.67;1.87;;;15.20;74.30;;;;;;6210724;23;20947;-70
2023/09/24 02:05:33;;;;;;;2.57;2.03;;;15.20;74.10;;;;;;6211947;23;20460;-70
2023/09/24 02:08:00;;;;;;;3.30;2.07;;;15.10;74.00;;;;;;6211941;23;20455;-70
2023/09/24 02:10:27;;;;;;;3.03;2.10;;;15.10;74.00;;;;;;6211200;23;20412;-69
2023/09/24 02:12:54;;;;;;;2.87;2.10;;;15.10;73.80;;;;;;6211498;23;20460;-69
2023/09/24 02:15:23;;;;;;;2.70;2.03;;;15.10;73.70;;;;;;6211613;23;20412;-69
2023/09/24 02:17:50;;;;;;;2.07;1.97;;;15.10;73.60;;;;;;6211396;23;20517;-69
2023/09/24 02:20:25;;;;;;;2.87;1.90;;;15.10;74.20;;;;;;6211203;23;20451;-69
2023/09/24 02:22:56;;;;;;;1.97;1.77;;;15.10;73.30;;;;;;6210773;23;20468;-69
2023/09/24 02:25:24;;;;;;;4.20;1.90;;;15.00;73.20;;;;;;6211279;23;20401;-69
2023/09/24 02:27:51;;;;;;;2.73;2.00;;;15.00;73.30;;;;;;6211501;23;20409;-69
2023/09/24 02:30:19;;;;;;;3.87;2.37;;;15.00;73.40;;;;;;6211433;23;20889;-69
2023/09/24 02:32:48;;;;;;;2.10;1.80;;;15.00;73.40;;;;;;6209968;23;20445;-69
2023/09/24 02:35:16;;;;;;;2.47;1.90;;;15.00;73.40;;;;;;6211575;23;20456;-68
2023/09/24 02:37:45;;;;;;;2.03;1.83;;;14.90;73.30;;;;;;6211509;23;20405;-69
2023/09/24 02:40:15;;;;;;;2.27;2.00;;;14.90;73.40;;;;;;6211680;23;20436;-68
2023/09/24 02:42:44;;;;;;;2.93;1.83;;;14.90;73.30;;;;;;6210529;23;20468;-69
2023/09/24 02:45:12;;;;;;;1.93;1.73;;;14.90;73.20;;;;;;6211569;23;20420;-69
2023/09/24 02:47:39;;;;;;;1.80;1.70;;;14.90;73.20;;;;;;6211262;23;20459;-69
2023/09/24 02:50:13;;;;;;;2.73;2.10;;;14.80;73.30;;;;;;6211455;23;20433;-69
2023/09/24 02:52:40;;;;;;;3.33;2.00;;;14.80;73.30;;;;;;6211157;23;20433;-69
2023/09/24 02:55:10;;;;;;;1.93;1.80;;;14.80;73.40;;;;;;6210488;23;20420;-69
2023/09/24 02:57:37;;;;;;;4.37;1.70;;;14.80;73.60;;;;;;6211865;23;20408;-69
2023/09/24 03:00:16;;;;;;;2.70;2.00;;;14.80;73.60;;;;;;6211465;23;20413;-69
2023/09/24 03:02:44;;;;;;;2.40;1.70;;;14.70;73.60;;;;;;6210648;23;20468;-69
2023/09/24 03:05:12;;;;;;;2.00;1.73;;;14.70;73.30;;;;;;6211203;23;20507;-69
2023/09/24 03:07:40;;;;;;;2.23;1.93;;;14.70;73.60;;;;;;6211466;23;20503;-69
2023/09/24 03:10:10;;;;;;;3.03;2.00;;;14.70;73.70;;;;;;6211830;23;20432;-69
2023/09/24 03:12:37;;;;;;;2.77;1.90;;;14.60;73.80;;;;;;6210055;23;20527;-69
2023/09/24 03:15:05;;;;;;;2.60;1.87;;;14.50;73.70;;;;;;6211037;23;20411;-69
2023/09/24 03:17:32;;;;;;;2.13;1.70;;;14.50;74.10;;;;;;6211091;23;20434;-69
2023/09/24 03:19:59;;;;;;;1.90;1.80;;;14.50;73.90;;;;;;6211262;23;20505;-69
2023/09/24 03:22:28;;;;;;;2.50;1.80;;;14.50;73.80;;;;;;6211683;23;20496;-69
2023/09/24 03:24:55;;;;;;;1.87;1.70;;;14.50;73.80;;;;;;6213247;23;20737;-69
2023/09/24 03:27:21;;;;;;;1.80;1.70;;;14.50;73.70;;;;;;6212449;23;20429;-69
2023/09/24 03:29:48;;;;;;;3.13;1.93;;;14.50;73.70;;;;;;6211798;23;20413;-69
2023/09/24 03:32:15;;;;;;;2.27;1.70;;;14.50;73.50;;;;;;6212659;23;20987;-69
2023/09/24 03:34:44;;;;;;;3.00;2.00;;;14.40;73.50;;;;;;6213200;23;20417;-69
2023/09/24 03:37:14;;;;;;;1.70;1.60;;;14.40;74.60;;;;;;6212600;23;20727;-69
2023/09/24 03:39:42;;;;;;;2.00;1.80;;;14.40;73.80;;;;;;6212775;23;20909;-69
2023/09/24 03:42:08;;;;;;;3.10;1.50;;;14.40;73.80;;;;;;6213092;23;20761;-69
2023/09/24 03:44:35;;;;;;;2.93;1.70;;;14.40;73.90;;;;;;6212785;23;20411;-69
2023/09/24 03:47:02;;;;;;;3.50;1.83;;;14.40;73.60;;;;;;6212907;23;20912;-69
2023/09/24 03:49:29;;;;;;;3.20;2.10;;;14.40;73.50;;;;;;6213216;23;20405;-69
2023/09/24 03:51:56;;;;;;;2.80;2.10;;;14.30;73.30;;;;;;6212507;23;20445;-70
2023/09/24 03:54:23;;;;;;;2.90;2.10;;;14.40;73.40;;;;;;6213256;23;20415;-70
2023/09/24 03:56:51;;;;;;;1.63;1.53;;;14.40;73.60;;;;;;6213307;23;20495;-70
2023/09/24 03:59:18;;;;;;;2.73;1.70;;;14.30;73.30;;;;;;6212355;23;20439;-70
2023/09/24 04:01:44;;;;;;;1.83;1.70;;;14.30;73.10;;;;;;6213252;23;20420;-70
2023/09/24 04:04:12;;;;;;;3.47;1.70;;;14.30;73.00;;;;;;6212196;23;20987;-70
2023/09/24 04:06:39;;;;;;;1.70;1.60;;;14.30;73.10;;;;;;6212684;23;20417;-70
2023/09/24 04:09:07;;;;;;;2.60;1.40;;;14.30;73.40;;;;;;6212852;23;20430;-70
2023/09/24 04:11:33;;;;;;;2.07;1.73;;;14.30;73.50;;;;;;6211320;23;20419;-70
2023/09/24 04:14:02;;;;;;;2.07;1.53;;;14.30;73.20;;;;;;6212447;23;20401;-70
2023/09/24 04:16:30;;;;;;;1.60;1.50;;;14.20;72.90;;;;;;6212656;23;20496;-69
2023/09/24 04:18:57;;;;;;;1.60;1.50;;;14.20;73.10;;;;;;6212851;23;20733;-70
2023/09/24 04:21:24;;;;;;;3.27;1.57;;;14.20;73.80;;;;;;6212034;23;20448;-70
2023/09/24 04:23:51;;;;;;;2.40;1.53;;;14.20;73.10;;;;;;6211549;23;20424;-70
2023/09/24 04:26:21;;;;;;;2.23;1.70;;;14.20;73.20;;;;;;6212032;23;20464;-70
2023/09/24 04:28:49;;;;;;;2.10;1.70;;;14.10;73.40;;;;;;6212246;23;20413;-70
2023/09/24 04:31:18;;;;;;;2.13;1.60;;;14.10;73.20;;;;;;6212065;23;20780;-70
2023/09/24 04:33:45;;;;;;;2.73;1.60;;;14.10;73.90;;;;;;6211435;23;20967;-70
2023/09/24 04:36:12;;;;;;;1.90;1.80;;;14.10;73.30;;;;;;6211535;23;20430;-70
2023/09/24 04:38:40;;;;;;;1.37;1.27;;;14.10;73.40;;;;;;6212010;23;20983;-70
2023/09/24 04:41:07;;;;;;;2.13;1.70;;;14.10;73.30;;;;;;6212177;23;20416;-70
2023/09/24 04:43:35;;;;;;;1.50;1.40;;;14.00;73.30;;;;;;6211635;23;20777;-70
2023/09/24 04:46:05;;;;;;;3.23;1.47;;;14.10;73.40;;;;;;6212481;23;20412;-70
2023/09/24 04:48:35;;;;;;;3.30;1.50;;;14.10;73.40;;;;;;6211884;23;20940;-70
2023/09/24 04:51:02;;;;;;;1.93;1.73;;;14.10;73.40;;;;;;6211802;23;20433;-70
2023/09/24 04:53:30;;;;;;;3.17;1.50;;;14.10;73.20;;;;;;6210897;23;20527;-70
2023/09/24 04:55:57;;;;;;;3.07;1.63;;;14.00;72.80;;;;;;6211488;23;20429;-70
2023/09/24 04:58:24;;;;;;;2.33;1.50;;;14.00;72.80;;;;;;6211836;23;20409;-70
2023/09/24 05:00:51;;;;;;;2.63;1.60;;;14.00;72.80;;;;;;6212864;23;20472;-70
2023/09/24 05:03:18;;;;;;;1.57;1.47;;;13.90;72.60;;;;;;6212378;23;20439;-70
2023/09/24 05:05:46;;;;;;;3.17;1.67;;;13.90;72.50;;;;;;6211439;23;20405;-70
2023/09/24 05:08:13;;;;;;;2.17;1.80;;;13.90;72.60;;;;;;6212271;23;20531;-79
2023/09/24 05:10:44;;;;;;;2.27;1.60;;;13.90;72.60;;;;;;6212379;23;20634;-70
2023/09/24 05:13:12;;;;;;;3.13;1.90;;;13.90;72.70;;;;;;6210785;23;20452;-70
2023/09/24 05:15:39;;;;;;;2.93;1.53;;;13.90;72.70;;;;;;6210980;23;20405;-70
2023/09/24 05:18:06;;;;;;;3.70;1.60;;;13.90;72.70;;;;;;6212149;23;20420;-70
2023/09/24 05:20:33;;;;;;;3.47;1.90;;;13.90;72.70;;;;;;6210479;23;20508;-70
2023/09/24 05:23:02;;;;;;;2.00;1.80;;;13.80;72.60;;;;;;6210733;23;20411;-70
2023/09/24 05:25:29;;;;;;;2.30;1.70;;;13.80;72.70;;;;;;6212262;23;20465;-70
2023/09/24 05:27:57;;;;;;;3.60;1.83;;;13.80;72.70;;;;;;6210972;23;20421;-70
2023/09/24 05:30:24;;;;;;;3.07;1.70;;;13.80;72.80;;;;;;6211909;23;20923;-70
2023/09/24 05:32:50;;;;;;;1.70;1.60;;;13.80;72.90;;;;;;6211001;23;20455;-70
2023/09/24 05:35:18;;;;;;;2.40;1.80;;;13.80;73.00;;;;;;6211478;23;20448;-70
2023/09/24 05:37:44;;;;;;;2.83;1.60;;;13.80;73.10;;;;;;6212045;23;20424;-70
2023/09/24 05:40:14;;;;;;;1.63;1.40;;;13.80;73.20;;;;;;6211455;23;20405;-70
2023/09/24 05:42:41;;;;;;;2.50;1.50;;;13.80;73.10;;;;;;6211657;23;20405;-70
2023/09/24 05:45:08;;;;;;;2.37;1.50;;;13.80;73.20;;;;;;6211188;23;20799;-70
2023/09/24 05:47:35;;;;;;;2.30;1.53;;;13.80;73.30;;;;;;6211851;23;20405;-70
2023/09/24 05:50:03;;;;;;;4.30;2.30;;;13.80;73.40;;;;;;6211785;23;20519;-70
2023/09/24 05:52:30;;;;;;;3.13;2.23;;;13.80;73.50;;;;;;6211675;23;20444;-70
2023/09/24 05:54:57;;;;;;;2.30;1.90;;;13.80;73.40;;;;;;6211446;23;20480;-70
2023/09/24 05:57:26;;;;;;;2.07;1.87;;;13.90;73.60;;;;;;6211423;23;20460;-70
2023/09/24 05:59:53;;;;;;;1.67;1.50;;;13.90;73.60;;;;;;6211093;23;20408;-70
2023/09/24 06:02:23;;;;;;;1.60;1.50;;;13.90;73.80;;;;;;6210732;23;20413;-70
2023/09/24 06:04:50;;;;;;;2.17;1.47;;;13.90;73.90;;;;;;6211066;23;20425;-70
2023/09/24 06:07:17;;;;;;;2.43;1.50;;;13.90;73.80;;;;;;6211833;23;20424;-70
2023/09/24 06:09:43;;;;;;;3.00;1.53;;;14.00;74.00;;;;;;6211245;23;20427;-70
2023/09/24 06:12:10;;;;;;;1.60;1.50;;;14.00;73.90;;;;;;6210689;23;20487;-70
2023/09/24 06:14:39;;;;;;;2.40;1.60;;;14.10;74.00;;;;;;6210488;23;20727;-70
2023/09/24 06:17:06;;;;;;;2.23;1.57;;;14.10;74.20;;;;;;6211187;23;20741;-70
2023/09/24 06:19:33;;;;;;;1.50;1.40;;;14.10;74.30;;;;;;6211275;23;20837;-71
2023/09/24 06:21:59;;;;;;;1.70;1.33;;;14.20;74.50;;;;;;6210491;23;20433;-70
2023/09/24 06:24:26;;;;;;;2.00;1.80;;;14.20;74.70;;;;;;6211052;23;20754;-70
2023/09/24 06:26:53;;;;;;;3.07;1.80;;;14.30;74.80;;;;;;6211758;23;20424;-70
2023/09/24 06:29:20;;;;;;;2.03;1.63;;;14.30;75.20;;;;;;6211099;23;20412;-70
2023/09/24 06:31:50;;;;;;;1.70;1.47;;;14.40;75.60;;;;;;6210547;23;20408;-71
2023/09/24 06:34:17;;;;;;;2.17;1.43;;;14.40;75.70;;;;;;6210564;23;21022;-70
2023/09/24 06:36:44;;;;;;;1.70;1.40;;;14.40;75.60;;;;;;6210743;23;20433;-70
2023/09/24 06:39:13;;;;;;;1.97;1.77;;;14.50;75.80;;;;;;6210401;23;20437;-70
2023/09/24 06:41:42;;;;;;;2.40;1.80;;;14.50;75.80;;;;;;6211254;23;20440;-70
2023/09/24 06:44:10;;;;;;;2.07;1.70;;;14.50;76.00;;;;;;6210974;23;20739;-70
2023/09/24 06:46:37;;;;;;;2.97;1.93;;;14.50;76.80;;;;;;6210180;23;20390;-70
2023/09/24 06:49:05;;;;;;;2.40;1.90;;;14.60;76.30;;;;;;6210782;23;20401;-70
2023/09/24 06:51:32;;;;;;;1.83;1.70;;;14.60;76.60;;;;;;6210648;23;20523;-70
2023/09/24 06:53:59;;;;;;;2.10;1.80;;;14.70;76.70;;;;;;6210766;23;20511;-70
2023/09/24 06:56:26;;;;;;;2.17;1.60;;;14.80;77.00;;;;;;6210765;23;20412;-70
2023/09/24 06:58:53;;;;;;;2.70;1.80;;;14.80;77.10;;;;;;6212198;23;20423;-70
2023/09/24 07:01:19;;;;;;;2.13;1.90;;;14.90;77.40;;;;;;6212199;23;20416;-69
2023/09/24 07:03:47;;;;;;;1.97;1.77;;;15.00;77.60;;;;;;6212521;23;20439;-70
2023/09/24 07:06:16;;;;;;;2.03;1.60;;;15.00;77.60;;;;;;6212849;23;20885;-70
2023/09/24 07:08:42;;;;;;;6.03;1.80;;;15.10;78.60;;;;;;6212717;23;20421;-70
2023/09/24 07:11:24;;;;;;;2.47;1.87;;;15.20;78.00;;;;;;6212410;23;20405;-69
2023/09/24 07:13:51;;;;;;;1.83;1.73;;;15.30;79.40;;;;;;6212352;23;20766;-69
2023/09/24 07:16:22;;;;;;;2.60;1.70;;;15.30;78.40;;;;;;6211853;23;20499;-69
2023/09/24 07:18:50;;;;;;;2.70;1.60;;;15.40;78.50;;;;;;6211576;23;20401;-70
2023/09/24 07:21:18;;;;;;;1.63;1.53;;;15.50;78.30;;;;;;6212622;23;20516;-69
2023/09/24 07:23:46;;;;;;;1.77;1.57;;;15.60;78.40;;;;;;6212559;23;20416;-70
2023/09/24 07:26:14;;;;;;;2.20;1.50;;;15.70;78.50;;;;;;6213003;23;20416;-71
2023/09/24 07:28:42;;;;;;;1.63;1.53;;;15.80;78.60;;;;;;6213019;23;20420;-70
2023/09/24 07:31:19;;;;;;;2.53;1.50;;;15.90;78.60;;;;;;6212729;23;20717;-68
2023/09/24 07:33:46;;;;;;;1.80;1.50;;;16.00;78.30;;;;;;6212846;23;20444;-70
2023/09/24 07:36:13;;;;;;;1.93;1.53;;;16.10;77.70;;;;;;6212852;23;20429;-70
2023/09/24 07:38:42;;;;;;;1.93;1.53;;;16.20;77.70;;;;;;6213193;23;20862;-69
2023/09/24 07:41:10;;;;;;;1.97;1.60;;;16.20;77.50;;;;;;6213042;23;20409;-69
2023/09/24 07:43:38;;;;;;;2.23;1.57;;;16.30;78.20;;;;;;6212709;23;20413;-71
2023/09/24 07:46:05;;;;;;;1.97;1.50;;;16.40;76.80;;;;;;6213025;23;20766;-69
2023/09/24 07:48:32;;;;;;;2.83;1.40;;;16.50;76.60;;;;;;6212927;23;20496;-69
2023/09/24 07:50:59;;;;;;;1.60;1.50;;;16.60;76.40;;;;;;6212754;23;20824;-70
2023/09/24 07:53:26;;;;;;;3.20;1.53;;;16.70;76.30;;;;;;6212761;23;20905;-70
2023/09/24 07:56:02;;;;;;;1.73;1.50;;;16.80;75.80;;;;;;6213054;23;20487;-69
2023/09/24 07:58:30;;;;;;;3.10;1.67;;;16.90;76.00;;;;;;6212727;23;20397;-70
2023/09/24 08:01:02;;;;;;;1.93;1.50;;;17.00;75.50;;;;;;6212153;23;20433;-69
2023/09/24 08:03:30;;;;;;;2.23;1.50;;;17.10;76.40;;;;;;6211584;23;20492;-69
2023/09/24 08:05:57;;;;;;;6.23;1.93;;;17.20;76.00;;;;;;6211879;23;20413;-69
2023/09/24 08:08:24;;;;;;;2.63;1.40;;;17.40;76.00;;;;;;6212037;23;20500;-69
2023/09/24 08:10:51;;;;;;;2.43;1.63;;;17.50;76.30;;;;;;6211829;23;20870;-70
2023/09/24 08:13:19;;;;;;;2.03;1.80;;;17.60;76.30;;;;;;6211422;23;20445;-69
2023/09/24 08:15:46;;;;;;;3.00;1.67;;;17.70;75.50;;;;;;6212692;23;20905;-70
2023/09/24 08:18:13;;;;;;;2.80;1.80;;;17.80;75.70;;;;;;6212556;23;20527;-70
2023/09/24 08:20:40;;;;;;;1.93;1.60;;;17.90;75.30;;;;;;6212354;23;20772;-70
2023/09/24 08:23:08;;;;;;;1.77;1.50;;;18.00;75.20;;;;;;6210435;23;20488;-70
2023/09/24 08:25:35;;;;;;;2.00;1.40;;;18.20;74.70;;;;;;6212731;23;20511;-70
2023/09/24 08:28:02;;;;;;;1.60;1.30;;;18.20;74.40;;;;;;6212218;23;20412;-71
2023/09/24 08:30:32;;;;;;;2.73;1.73;;;18.40;74.40;;;;;;6212461;23;20416;-70
2023/09/24 08:33:00;;;;;;;1.77;1.50;;;18.50;74.00;;;;;;6212037;23;20519;-70
2023/09/24 08:35:27;;;;;;;3.10;1.63;;;18.70;74.00;;;;;;6215287;23;20265;-70
2023/09/24 08:37:54;;;;;;;2.60;1.50;;;18.80;74.00;;;;;;6211602;23;20208;-71
2023/09/24 08:40:21;;;;;;;3.20;1.50;;;19.00;73.80;;;;;;6211279;23;20633;-71
2023/09/24 08:43:00;;;;;;;2.27;1.50;;;19.10;73.30;;;;;;6212068;23;20268;-74
2023/09/24 08:45:29;;;;;;;2.10;1.50;;;19.20;72.60;;;;;;6211870;23;20483;-73
2023/09/24 08:48:00;;;;;;;2.03;1.43;;;19.30;72.60;;;;;;6212067;23;20213;-74
2023/09/24 08:50:27;;;;;;;3.17;1.63;;;19.40;72.50;;;;;;6211713;23;20437;-75
2023/09/24 08:52:55;;;;;;;3.50;1.73;;;19.60;73.10;;;;;;6185748;23;20675;-75
2023/09/24 08:55:22;;;;;;;2.37;1.40;;;19.70;73.00;;;;;;6213445;23;20409;-75
2023/09/24 08:57:50;;;;;;;2.30;1.70;;;19.90;72.50;;;;;;6212942;23;20215;-74
2023/09/24 09:00:17;;;;;;;4.97;1.83;;;20.10;72.20;;;;;;6213312;23;20273;-76
2023/09/24 09:02:44;;;;;;;2.33;1.40;;;20.20;71.80;;;;;;6213539;23;20272;-75
2023/09/24 09:05:22;;;;;;;2.17;1.70;;;20.20;71.20;;;;;;6213162;23;20181;-76
2023/09/24 09:07:58;;;;;;;2.63;1.40;;;20.50;71.00;;;;;;6212951;23;20201;-76
2023/09/24 09:10:27;;;;;;;2.77;1.40;;;20.70;70.90;;;;;;6213069;23;20170;-75
2023/09/24 09:13:03;;;;;;;2.47;1.60;;;20.80;70.90;;;;;;6212531;23;20182;-75
2023/09/24 09:15:30;;;;;;;2.43;1.87;;;21.00;70.30;;;;;;6213245;23;20626;-76
2023/09/24 09:17:57;;;;;;;3.20;2.70;;;21.20;69.80;;;;;;6212171;23;20490;-74
2023/09/24 09:23:30;;;;;;;2.57;1.70;;;21.30;69.90;;;;;;5108419;27;20643;-75
2023/09/24 09:25:57;;;;;;;3.20;1.70;;;21.50;68.30;;;;;;5089181;28;20238;-75
2023/09/24 09:28:25;;;;;;;4.37;1.70;;;21.70;68.30;;;;;;5088901;28;20209;-75
2023/09/24 09:31:00;;;;;;;2.77;1.77;;;21.80;68.10;;;;;;5089404;28;20664;-76
2023/09/24 09:33:28;;;;;;;1.73;1.50;;;21.90;67.70;;;;;;5089050;28;20204;-77
2023/09/24 09:35:57;;;;;;;3.33;1.80;;;22.00;67.60;;;;;;5089450;28;20295;-77
2023/09/24 09:38:26;;;;;;;1.97;1.60;;;22.20;66.90;;;;;;5117313;28;20204;-75
2023/09/24 09:40:55;;;;;;;2.60;1.70;;;22.30;66.50;;;;;;5109728;28;20227;-75
2023/09/24 09:43:25;;;;;;;2.93;1.40;;;22.50;66.10;;;;;;5108773;28;20200;-75
2023/09/24 09:45:54;;;;;;;3.37;1.63;;;22.60;65.90;;;;;;5108910;28;20199;-78
2023/09/24 09:48:30;;;;;;;2.40;1.60;;;22.70;65.20;;;;;;5094537;28;20228;-75
2023/09/24 09:51:02;;;;;;;2.23;1.60;;;22.90;64.90;;;;;;5088709;28;20184;-76
2023/09/24 09:53:34;;;;;;;2.83;1.70;;;23.00;65.00;;;;;;5088850;28;20228;-78
2023/09/24 09:56:03;;;;;;;3.27;1.60;;;23.10;64.30;;;;;;5093485;28;20540;-78
2023/09/24 09:58:37;;;;;;;2.10;1.60;;;23.20;64.10;;;;;;5108953;28;20204;-76
2023/09/24 10:01:05;;;;;;;2.67;1.70;;;23.40;63.00;;;;;;5108102;28;20207;-77
2023/09/24 10:03:34;;;;;;;2.03;1.60;;;23.50;63.40;;;;;;5108873;28;20290;-75
2023/09/24 10:06:03;;;;;;;3.03;1.83;;;23.60;61.80;;;;;;5093488;28;20644;-76
2023/09/24 10:08:42;;;;;;;3.87;1.70;;;23.80;62.00;;;;;;5107981;28;20235;-76
2023/09/24 10:11:10;;;;;;;2.83;1.80;;;23.80;61.80;;;;;;5103904;28;20227;-76
2023/09/24 10:13:48;;;;;;;2.83;1.80;;;24.00;62.10;;;;;;5102006;28;20709;-76
2023/09/24 10:16:37;;;;;;;2.17;1.47;;;24.10;60.50;;;;;;5104908;28;20283;-75
2023/09/24 10:19:09;;;;;;;2.90;1.67;;;24.30;59.60;;;;;;5085561;28;20199;-75
2023/09/24 10:21:36;;;;;;;2.20;1.40;;;24.40;60.40;;;;;;5104283;28;20228;-76
2023/09/24 10:24:48;;;;;;;2.67;1.90;;;24.50;60.00;;;;;;5105339;28;20210;-75
2023/09/24 10:27:21;;;;;;;1.77;1.50;;;24.70;58.10;;;;;;5090041;28;20207;-76
2023/09/24 10:30:09;;;;;;;2.50;1.80;;;24.80;58.70;;;;;;5106423;28;20202;-74
2023/09/24 10:32:50;;;;;;;2.80;1.50;;;24.90;56.80;;;;;;5103773;28;20219;-75
2023/09/24 10:35:17;;;;;;;2.87;1.53;;;25.00;56.10;;;;;;5081551;28;20204;-75
2023/09/24 10:38:11;;;;;;;3.07;1.73;;;25.20;56.50;;;;;;5105751;27;20201;-74
2023/09/24 10:41:05;;;;;;;1.67;1.47;;;25.30;54.30;;;;;;5067535;28;20589;-75
2023/09/24 10:43:33;;;;;;;2.63;1.63;;;25.40;54.60;;;;;;5089707;28;20232;-75
2023/09/24 10:46:27;;;;;;;2.67;1.80;;;25.50;54.90;;;;;;5090248;28;20208;-74
2023/09/24 10:48:55;;;;;;;3.10;1.70;;;25.70;54.20;;;;;;5090201;28;20223;-76
2023/09/24 10:51:22;;;;;;;3.83;1.60;;;25.80;55.50;;;;;;5087977;28;20224;-73
2023/09/24 10:53:49;;;;;;;2.97;1.63;;;25.80;54.80;;;;;;5083014;28;20205;-75
2023/09/24 10:56:16;;;;;;;3.27;1.70;;;25.90;54.10;;;;;;5081678;28;20435;-75
2023/09/24 10:58:50;;;;;;;2.33;1.53;;;26.00;53.20;;;;;;5080634;28;20200;-75
2023/09/24 11:01:17;;;;;;;2.27;1.70;;;26.00;50.80;;;;;;5090874;28;20200;-75
2023/09/24 11:03:44;;;;;;;3.53;1.90;;;26.00;51.50;;;;;;5075823;28;20216;-74
2023/09/24 11:06:11;;;;;;;1.83;1.60;;;26.10;49.60;;;;;;5088940;28;20205;-75
2023/09/24 11:08:37;;;;;;;2.60;1.77;;;26.00;49.40;;;;;;5073480;28;20205;-76
2023/09/24 11:11:04;;;;;;;2.17;1.97;;;26.10;49.40;;;;;;5090665;28;20719;-72
2023/09/24 11:13:31;;;;;;;2.17;1.47;;;26.20;49.60;;;;;;5089024;28;20621;-75
2023/09/24 11:16:00;;;;;;;3.57;1.70;;;26.30;49.50;;;;;;5087279;28;20729;-78
2023/09/24 11:18:28;;;;;;;3.37;2.00;;;26.50;49.70;;;;;;5102823;28;20289;-76
2023/09/24 11:20:55;;;;;;;2.27;1.57;;;26.70;49.50;;;;;;5090652;28;20204;-75
2023/09/24 11:23:22;;;;;;;2.17;1.70;;;26.80;48.60;;;;;;5090562;28;20212;-75
2023/09/24 11:25:50;;;;;;;3.07;1.77;;;26.90;48.40;;;;;;5091131;28;20213;-72
2023/09/24 11:28:19;;;;;;;2.07;1.70;;;27.00;48.60;;;;;;5090552;28;20347;-76
2023/09/24 11:30:47;;;;;;;2.27;1.60;;;27.10;47.90;;;;;;5082886;28;20232;-73
2023/09/24 11:33:17;;;;;;;2.97;1.70;;;27.20;47.00;;;;;;5089732;28;20190;-75
2023/09/24 11:35:45;;;;;;;3.60;1.90;;;27.30;46.50;;;;;;5089152;28;20231;-71
2023/09/24 11:38:12;;;;;;;2.07;1.50;;;27.40;46.30;;;;;;5086549;28;20220;-72
2023/09/24 11:40:41;;;;;;;2.30;1.80;;;27.50;45.60;;;;;;5085271;28;20226;-72
2023/09/24 11:43:13;;;;;;;2.70;1.60;;;27.60;46.10;;;;;;5089282;28;20223;-73
2023/09/24 11:45:43;;;;;;;1.83;1.60;;;27.70;46.20;;;;;;5078490;28;20420;-72
2023/09/24 11:48:12;;;;;;;3.20;1.50;;;27.70;46.00;;;;;;5090944;28;20229;-71
2023/09/24 11:50:42;;;;;;;2.40;1.70;;;27.70;44.50;;;;;;5089689;28;20557;-71
2023/09/24 11:53:09;;;;;;;2.10;1.53;;;27.80;45.00;;;;;;5089735;28;20219;-72
2023/09/24 11:55:36;;;;;;;1.90;1.60;;;27.90;45.10;;;;;;5090225;28;20192;-72
2023/09/24 11:58:05;;;;;;;2.87;1.60;;;27.90;44.30;;;;;;5089648;28;20231;-73
2023/09/24 12:00:33;;;;;;;3.10;1.80;;;28.00;44.40;;;;;;5089529;28;20214;-72
2023/09/24 12:03:00;;;;;;;1.90;1.50;;;28.10;44.50;;;;;;5089451;28;20238;-74
2023/09/24 12:05:28;;;;;;;2.47;1.70;;;28.10;44.20;;;;;;5089757;28;20561;-73
2023/09/24 12:07:56;;;;;;;3.33;1.53;;;28.20;44.50;;;;;;5089753;28;20207;-74
2023/09/24 12:10:23;;;;;;;1.67;1.40;;;28.30;44.40;;;;;;5089652;28;20208;-73
2023/09/24 12:12:50;;;;;;;3.43;1.83;;;28.40;43.80;;;;;;5089048;28;20223;-73
2023/09/24 12:15:18;;;;;;;2.17;1.67;;;28.50;44.50;;;;;;5085572;28;20204;-73
2023/09/24 12:17:46;;;;;;;2.90;1.73;;;28.70;43.90;;;;;;5089097;28;20200;-74
2023/09/24 12:20:13;;;;;;;1.97;1.57;;;28.80;43.80;;;;;;5088436;28;20223;-72
2023/09/24 12:22:42;;;;;;;2.23;1.50;;;28.90;43.40;;;;;;5089017;28;20717;-73
2023/09/24 12:25:11;;;;;;;2.37;1.60;;;29.00;43.00;;;;;;5089396;28;20235;-71
2023/09/24 12:27:39;;;;;;;3.17;2.00;;;29.10;43.30;;;;;;5089336;28;20604;-74
2023/09/24 12:30:10;;;;;;;2.40;1.80;;;29.20;42.70;;;;;;5089332;28;20299;-73
2023/09/24 12:32:37;;;;;;;1.93;1.60;;;29.20;42.70;;;;;;5089497;28;20189;-74
2023/09/24 12:35:05;;;;;;;1.83;1.50;;;29.30;41.80;;;;;;5088443;28;20215;-72
2023/09/24 12:37:34;;;;;;;3.60;1.67;;;29.40;42.20;;;;;;5089160;28;20208;-73
2023/09/24 12:40:04;;;;;;;2.87;2.40;;;29.50;42.80;;;;;;5088612;28;20668;-74
2023/09/24 12:42:32;;;;;;;3.43;2.50;;;29.60;42.50;;;;;;5088481;28;20277;-74
2023/09/24 12:44:59;;;;;;;2.20;1.70;;;29.70;42.00;;;;;;5088991;28;20204;-73
2023/09/24 12:47:28;;;;;;;2.23;1.90;;;29.70;42.10;;;;;;5089313;28;20204;-72
2023/09/24 12:49:56;;;;;;;2.53;1.90;;;29.80;42.20;;;;;;5088879;28;20230;-72
2023/09/24 12:52:25;;;;;;;2.33;1.80;;;29.90;41.90;;;;;;5089044;28;20466;-72
2023/09/24 12:54:52;;;;;;;2.10;1.70;;;29.90;41.70;;;;;;5088555;28;20686;-73
2023/09/24 12:57:19;;;;;;;3.10;1.90;;;30.10;41.70;;;;;;5088647;28;20208;-72
2023/09/24 12:59:47;;;;;;;1.93;1.73;;;30.20;41.30;;;;;;5088776;28;20207;-73